sensor_id;sensor_type;location;lat;lon;timestamp;P1;durP1;ratioP1;P2;durP2;ratioP2
70122;SDS011;57489;37.404;24.920;2023-05-10T00:03:35;7.00;;;3.27;;
70122;SDS011;57489;37.404;24.920;2023-05-10T00:08:36;7.50;;;3.90;;
70122;SDS011;57489;37.404;24.920;2023-05-10T00:13:36;7.50;;;3.33;;
70122;SDS011;57489;37.404;24.920;2023-05-10T00:18:37;7.90;;;3.83;;
70122;SDS011;57489;37.404;24.920;2023-05-10T00:23:37;5.90;;;3.23;;
70122;SDS011;57489;37.404;24.920;2023-05-10T00:28:37;7.40;;;3.20;;
70122;SDS011;57489;37.404;24.920;2023-05-10T00:33:38;8.90;;;3.50;;
70122;SDS011;57489;37.404;24.920;2023-05-10T00:38:38;5.70;;;3.07;;
70122;SDS011;57489;37.404;24.920;2023-05-10T00:43:39;6.53;;;3.50;;
70122;SDS011;57489;37.404;24.920;2023-05-10T00:48:39;7.77;;;3.00;;
70122;SDS011;57489;37.404;24.920;2023-05-10T00:53:40;7.27;;;3.47;;
70122;SDS011;57489;37.404;24.920;2023-05-10T00:58:40;6.33;;;3.33;;
70122;SDS011;57489;37.404;24.920;2023-05-10T01:03:41;8.93;;;3.30;;
70122;SDS011;57489;37.404;24.920;2023-05-10T01:08:42;6.70;;;2.93;;
70122;SDS011;57489;37.404;24.920;2023-05-10T01:13:53;9.07;;;3.70;;
70122;SDS011;57489;37.404;24.920;2023-05-10T01:18:56;7.07;;;3.40;;
70122;SDS011;57489;37.404;24.920;2023-05-10T01:24:08;5.87;;;2.90;;
70122;SDS011;57489;37.404;24.920;2023-05-10T01:29:24;7.15;;;3.63;;
70122;SDS011;57489;37.404;24.920;2023-05-10T01:34:51;5.88;;;3.00;;
70122;SDS011;57489;37.404;24.920;2023-05-10T01:39:58;7.87;;;3.40;;
70122;SDS011;57489;37.404;24.920;2023-05-10T01:45:13;6.83;;;2.93;;
70122;SDS011;57489;37.404;24.920;2023-05-10T01:50:24;8.50;;;3.20;;
70122;SDS011;57489;37.404;24.920;2023-05-10T01:55:30;6.97;;;3.30;;
70122;SDS011;57489;37.404;24.920;2023-05-10T02:00:34;5.97;;;2.97;;
70122;SDS011;57489;37.404;24.920;2023-05-10T02:05:35;10.43;;;3.20;;
70122;SDS011;57489;37.404;24.920;2023-05-10T02:10:37;7.30;;;2.88;;
70122;SDS011;57489;37.404;24.920;2023-05-10T02:15:40;6.53;;;3.17;;
70122;SDS011;57489;37.404;24.920;2023-05-10T02:20:41;8.10;;;3.17;;
70122;SDS011;57489;37.404;24.920;2023-05-10T02:25:45;6.53;;;2.85;;
70122;SDS011;57489;37.404;24.920;2023-05-10T02:30:48;9.33;;;3.67;;
70122;SDS011;57489;37.404;24.920;2023-05-10T02:35:50;6.27;;;3.13;;
70122;SDS011;57489;37.404;24.920;2023-05-10T02:40:51;6.90;;;3.15;;
70122;SDS011;57489;37.404;24.920;2023-05-10T02:45:52;7.60;;;3.25;;
70122;SDS011;57489;37.404;24.920;2023-05-10T02:50:53;7.53;;;3.17;;
70122;SDS011;57489;37.404;24.920;2023-05-10T02:55:57;6.57;;;3.37;;
70122;SDS011;57489;37.404;24.920;2023-05-10T03:01:00;7.47;;;3.40;;
70122;SDS011;57489;37.404;24.920;2023-05-10T03:06:00;6.77;;;3.17;;
70122;SDS011;57489;37.404;24.920;2023-05-10T03:16:12;7.27;;;2.70;;
70122;SDS011;57489;37.404;24.920;2023-05-10T03:21:17;6.28;;;3.22;;
70122;SDS011;57489;37.404;24.920;2023-05-10T03:26:23;6.28;;;2.95;;
70122;SDS011;57489;37.404;24.920;2023-05-10T03:31:25;7.47;;;3.80;;
70122;SDS011;57489;37.404;24.920;2023-05-10T03:36:26;9.07;;;3.42;;
70122;SDS011;57489;37.404;24.920;2023-05-10T03:41:26;6.27;;;3.37;;
70122;SDS011;57489;37.404;24.920;2023-05-10T03:46:27;6.37;;;3.17;;
70122;SDS011;57489;37.404;24.920;2023-05-10T03:51:27;8.00;;;4.00;;
70122;SDS011;57489;37.404;24.920;2023-05-10T03:56:28;6.10;;;3.37;;
70122;SDS011;57489;37.404;24.920;2023-05-10T04:01:28;8.33;;;4.13;;
70122;SDS011;57489;37.404;24.920;2023-05-10T04:06:29;6.60;;;3.73;;
70122;SDS011;57489;37.404;24.920;2023-05-10T04:11:29;7.03;;;3.63;;
70122;SDS011;57489;37.404;24.920;2023-05-10T04:16:30;8.18;;;3.42;;
70122;SDS011;57489;37.404;24.920;2023-05-10T04:21:30;7.90;;;3.30;;
70122;SDS011;57489;37.404;24.920;2023-05-10T04:26:31;9.03;;;3.60;;
70122;SDS011;57489;37.404;24.920;2023-05-10T04:31:31;8.43;;;3.30;;
70122;SDS011;57489;37.404;24.920;2023-05-10T04:36:32;9.50;;;3.57;;
70122;SDS011;57489;37.404;24.920;2023-05-10T04:41:32;6.35;;;3.22;;
70122;SDS011;57489;37.404;24.920;2023-05-10T04:46:33;9.37;;;4.07;;
70122;SDS011;57489;37.404;24.920;2023-05-10T04:51:33;14.33;;;4.77;;
70122;SDS011;57489;37.404;24.920;2023-05-10T04:56:34;13.63;;;3.63;;
70122;SDS011;57489;37.404;24.920;2023-05-10T05:01:34;12.03;;;3.57;;
70122;SDS011;57489;37.404;24.920;2023-05-10T05:06:34;13.50;;;4.17;;
70122;SDS011;57489;37.404;24.920;2023-05-10T05:11:35;14.70;;;3.77;;
70122;SDS011;57489;37.404;24.920;2023-05-10T05:16:36;17.90;;;3.27;;
70122;SDS011;57489;37.404;24.920;2023-05-10T05:21:36;11.70;;;3.60;;
70122;SDS011;57489;37.404;24.920;2023-05-10T05:26:36;9.17;;;3.07;;
70122;SDS011;57489;37.404;24.920;2023-05-10T05:31:37;7.87;;;3.93;;
70122;SDS011;57489;37.404;24.920;2023-05-10T05:36:37;11.97;;;3.67;;
70122;SDS011;57489;37.404;24.920;2023-05-10T05:41:38;8.23;;;3.87;;
70122;SDS011;57489;37.404;24.920;2023-05-10T05:46:38;10.70;;;3.10;;
70122;SDS011;57489;37.404;24.920;2023-05-10T05:51:39;7.10;;;3.53;;
70122;SDS011;57489;37.404;24.920;2023-05-10T05:56:39;14.30;;;4.53;;
70122;SDS011;57489;37.404;24.920;2023-05-10T06:01:39;14.90;;;4.30;;
70122;SDS011;57489;37.404;24.920;2023-05-10T06:06:40;11.13;;;3.47;;
70122;SDS011;57489;37.404;24.920;2023-05-10T06:11:40;11.53;;;4.20;;
70122;SDS011;57489;37.404;24.920;2023-05-10T06:16:41;9.27;;;4.07;;
70122;SDS011;57489;37.404;24.920;2023-05-10T06:21:41;9.07;;;3.63;;
70122;SDS011;57489;37.404;24.920;2023-05-10T06:26:42;8.10;;;3.57;;
70122;SDS011;57489;37.404;24.920;2023-05-10T06:31:42;10.47;;;3.13;;
70122;SDS011;57489;37.404;24.920;2023-05-10T06:36:43;8.63;;;3.53;;
70122;SDS011;57489;37.404;24.920;2023-05-10T06:41:43;9.03;;;3.20;;
70122;SDS011;57489;37.404;24.920;2023-05-10T06:46:44;8.70;;;3.30;;
70122;SDS011;57489;37.404;24.920;2023-05-10T06:51:44;8.43;;;3.57;;
70122;SDS011;57489;37.404;24.920;2023-05-10T06:56:44;9.97;;;2.93;;
70122;SDS011;57489;37.404;24.920;2023-05-10T07:01:45;7.73;;;3.77;;
70122;SDS011;57489;37.404;24.920;2023-05-10T07:06:45;7.50;;;3.33;;
70122;SDS011;57489;37.404;24.920;2023-05-10T07:11:46;11.40;;;3.93;;
70122;SDS011;57489;37.404;24.920;2023-05-10T07:16:46;9.00;;;3.27;;
70122;SDS011;57489;37.404;24.920;2023-05-10T07:21:47;7.80;;;4.13;;
70122;SDS011;57489;37.404;24.920;2023-05-10T07:26:47;7.80;;;3.42;;
70122;SDS011;57489;37.404;24.920;2023-05-10T07:31:48;10.63;;;3.73;;
70122;SDS011;57489;37.404;24.920;2023-05-10T07:36:48;11.10;;;3.27;;
70122;SDS011;57489;37.404;24.920;2023-05-10T07:41:49;10.20;;;2.90;;
70122;SDS011;57489;37.404;24.920;2023-05-10T07:46:49;9.43;;;3.47;;
70122;SDS011;57489;37.404;24.920;2023-05-10T07:51:50;8.40;;;2.80;;
70122;SDS011;57489;37.404;24.920;2023-05-10T07:56:50;10.33;;;3.80;;
70122;SDS011;57489;37.404;24.920;2023-05-10T08:01:51;6.83;;;3.03;;
70122;SDS011;57489;37.404;24.920;2023-05-10T08:06:51;11.27;;;3.33;;
70122;SDS011;57489;37.404;24.920;2023-05-10T08:11:52;8.40;;;3.43;;
70122;SDS011;57489;37.404;24.920;2023-05-10T08:16:52;10.37;;;3.07;;
70122;SDS011;57489;37.404;24.920;2023-05-10T08:21:52;10.33;;;3.87;;
70122;SDS011;57489;37.404;24.920;2023-05-10T08:26:53;8.33;;;2.50;;
70122;SDS011;57489;37.404;24.920;2023-05-10T08:31:53;5.70;;;2.70;;
70122;SDS011;57489;37.404;24.920;2023-05-10T08:36:54;9.00;;;3.10;;
70122;SDS011;57489;37.404;24.920;2023-05-10T08:41:54;7.60;;;3.43;;
70122;SDS011;57489;37.404;24.920;2023-05-10T08:47:01;10.63;;;3.40;;
70122;SDS011;57489;37.404;24.920;2023-05-10T08:52:04;11.82;;;3.47;;
70122;SDS011;57489;37.404;24.920;2023-05-10T08:57:07;11.27;;;3.80;;
70122;SDS011;57489;37.404;24.920;2023-05-10T09:02:08;10.20;;;3.83;;
70122;SDS011;57489;37.404;24.920;2023-05-10T09:07:11;11.07;;;3.90;;
70122;SDS011;57489;37.404;24.920;2023-05-10T09:12:12;8.60;;;3.80;;
70122;SDS011;57489;37.404;24.920;2023-05-10T09:17:13;9.80;;;4.20;;
70122;SDS011;57489;37.404;24.920;2023-05-10T09:22:13;11.43;;;4.40;;
70122;SDS011;57489;37.404;24.920;2023-05-10T09:27:14;7.10;;;3.40;;
70122;SDS011;57489;37.404;24.920;2023-05-10T09:32:14;8.80;;;3.43;;
70122;SDS011;57489;37.404;24.920;2023-05-10T09:37:15;9.80;;;3.93;;
70122;SDS011;57489;37.404;24.920;2023-05-10T09:42:17;11.03;;;3.70;;
70122;SDS011;57489;37.404;24.920;2023-05-10T09:47:18;8.25;;;3.72;;
70122;SDS011;57489;37.404;24.920;2023-05-10T09:52:18;10.00;;;3.83;;
70122;SDS011;57489;37.404;24.920;2023-05-10T09:57:22;8.07;;;4.03;;
70122;SDS011;57489;37.404;24.920;2023-05-10T10:02:28;12.93;;;3.97;;
70122;SDS011;57489;37.404;24.920;2023-05-10T10:07:28;7.40;;;2.97;;
70122;SDS011;57489;37.404;24.920;2023-05-10T10:12:29;9.20;;;2.85;;
70122;SDS011;57489;37.404;24.920;2023-05-10T10:17:30;8.00;;;2.73;;
70122;SDS011;57489;37.404;24.920;2023-05-10T10:22:31;7.95;;;2.95;;
70122;SDS011;57489;37.404;24.920;2023-05-10T10:28:08;6.93;;;2.67;;
70122;SDS011;57489;37.404;24.920;2023-05-10T10:49:23;6.10;;;2.80;;
70122;SDS011;57489;37.404;24.920;2023-05-10T10:54:29;10.07;;;2.50;;
70122;SDS011;57489;37.404;24.920;2023-05-10T10:59:29;6.07;;;2.37;;
70122;SDS011;57489;37.404;24.920;2023-05-10T11:04:31;5.93;;;2.80;;
70122;SDS011;57489;37.404;24.920;2023-05-10T11:09:41;10.07;;;2.67;;
70122;SDS011;57489;37.404;24.920;2023-05-10T11:14:42;6.10;;;2.17;;
70122;SDS011;57489;37.404;24.920;2023-05-10T11:19:57;9.80;;;2.90;;
70122;SDS011;57489;37.404;24.920;2023-05-10T11:25:18;10.00;;;2.55;;
70122;SDS011;57489;37.404;24.920;2023-05-10T11:30:18;7.03;;;2.75;;
70122;SDS011;57489;37.404;24.920;2023-05-10T11:35:19;12.20;;;2.70;;
70122;SDS011;57489;37.404;24.920;2023-05-10T11:40:22;13.50;;;3.00;;
70122;SDS011;57489;37.404;24.920;2023-05-10T11:45:23;10.00;;;2.35;;
70122;SDS011;57489;37.404;24.920;2023-05-10T11:50:24;13.87;;;3.00;;
70122;SDS011;57489;37.404;24.920;2023-05-10T11:55:25;13.68;;;3.22;;
70122;SDS011;57489;37.404;24.920;2023-05-10T12:00:25;12.63;;;3.10;;
70122;SDS011;57489;37.404;24.920;2023-05-10T12:05:26;10.43;;;3.37;;
70122;SDS011;57489;37.404;24.920;2023-05-10T12:10:26;7.30;;;2.97;;
70122;SDS011;57489;37.404;24.920;2023-05-10T12:15:27;15.80;;;2.63;;
70122;SDS011;57489;37.404;24.920;2023-05-10T12:20:27;12.20;;;2.70;;
70122;SDS011;57489;37.404;24.920;2023-05-10T12:25:32;8.27;;;2.27;;
70122;SDS011;57489;37.404;24.920;2023-05-10T12:30:34;10.18;;;2.25;;
70122;SDS011;57489;37.404;24.920;2023-05-10T12:35:49;11.27;;;2.90;;
70122;SDS011;57489;37.404;24.920;2023-05-10T12:40:51;7.70;;;2.28;;
70122;SDS011;57489;37.404;24.920;2023-05-10T12:45:51;6.70;;;2.27;;
70122;SDS011;57489;37.404;24.920;2023-05-10T12:50:52;8.53;;;2.47;;
70122;SDS011;57489;37.404;24.920;2023-05-10T12:55:52;8.43;;;2.30;;
70122;SDS011;57489;37.404;24.920;2023-05-10T13:00:53;6.27;;;2.30;;
70122;SDS011;57489;37.404;24.920;2023-05-10T13:05:54;10.60;;;3.10;;
70122;SDS011;57489;37.404;24.920;2023-05-10T13:10:54;8.23;;;2.47;;
70122;SDS011;57489;37.404;24.920;2023-05-10T13:15:55;7.63;;;2.63;;
70122;SDS011;57489;37.404;24.920;2023-05-10T13:20:55;7.33;;;2.47;;
70122;SDS011;57489;37.404;24.920;2023-05-10T13:25:55;6.63;;;2.63;;
70122;SDS011;57489;37.404;24.920;2023-05-10T13:30:56;8.13;;;3.00;;
70122;SDS011;57489;37.404;24.920;2023-05-10T13:35:56;4.97;;;2.00;;
70122;SDS011;57489;37.404;24.920;2023-05-10T13:40:57;7.93;;;2.63;;
70122;SDS011;57489;37.404;24.920;2023-05-10T13:45:57;4.83;;;2.43;;
70122;SDS011;57489;37.404;24.920;2023-05-10T13:50:58;9.37;;;3.17;;
70122;SDS011;57489;37.404;24.920;2023-05-10T13:55:58;5.97;;;2.70;;
70122;SDS011;57489;37.404;24.920;2023-05-10T14:00:59;9.43;;;2.73;;
70122;SDS011;57489;37.404;24.920;2023-05-10T14:05:59;7.15;;;2.40;;
70122;SDS011;57489;37.404;24.920;2023-05-10T14:11:00;8.50;;;2.53;;
70122;SDS011;57489;37.404;24.920;2023-05-10T14:16:02;14.70;;;2.50;;
70122;SDS011;57489;37.404;24.920;2023-05-10T14:21:02;9.18;;;2.70;;
70122;SDS011;57489;37.404;24.920;2023-05-10T14:26:03;7.17;;;2.73;;
70122;SDS011;57489;37.404;24.920;2023-05-10T14:31:04;15.45;;;2.70;;
70122;SDS011;57489;37.404;24.920;2023-05-10T14:36:04;10.63;;;2.80;;
70122;SDS011;57489;37.404;24.920;2023-05-10T14:41:05;9.20;;;2.67;;
70122;SDS011;57489;37.404;24.920;2023-05-10T14:46:06;8.30;;;2.75;;
70122;SDS011;57489;37.404;24.920;2023-05-10T14:51:07;7.73;;;3.03;;
70122;SDS011;57489;37.404;24.920;2023-05-10T14:56:07;11.83;;;3.60;;
70122;SDS011;57489;37.404;24.920;2023-05-10T15:01:08;9.67;;;3.00;;
70122;SDS011;57489;37.404;24.920;2023-05-10T15:06:08;9.97;;;2.87;;
70122;SDS011;57489;37.404;24.920;2023-05-10T15:11:09;7.60;;;2.77;;
70122;SDS011;57489;37.404;24.920;2023-05-10T15:16:09;10.27;;;3.03;;
70122;SDS011;57489;37.404;24.920;2023-05-10T15:21:09;6.93;;;2.73;;
70122;SDS011;57489;37.404;24.920;2023-05-10T15:26:10;13.13;;;3.70;;
70122;SDS011;57489;37.404;24.920;2023-05-10T15:31:10;9.23;;;2.90;;
70122;SDS011;57489;37.404;24.920;2023-05-10T15:36:11;8.03;;;3.70;;
70122;SDS011;57489;37.404;24.920;2023-05-10T15:41:11;7.40;;;2.90;;
70122;SDS011;57489;37.404;24.920;2023-05-10T15:46:12;9.03;;;3.63;;
70122;SDS011;57489;37.404;24.920;2023-05-10T15:51:12;8.48;;;3.08;;
70122;SDS011;57489;37.404;24.920;2023-05-10T15:56:13;7.93;;;3.20;;
70122;SDS011;57489;37.404;24.920;2023-05-10T16:01:13;7.90;;;2.97;;
70122;SDS011;57489;37.404;24.920;2023-05-10T16:06:14;11.50;;;3.50;;
70122;SDS011;57489;37.404;24.920;2023-05-10T16:11:14;12.23;;;3.23;;
70122;SDS011;57489;37.404;24.920;2023-05-10T16:16:15;9.47;;;3.00;;
70122;SDS011;57489;37.404;24.920;2023-05-10T16:21:15;12.97;;;3.40;;
70122;SDS011;57489;37.404;24.920;2023-05-10T16:26:16;11.63;;;3.47;;
70122;SDS011;57489;37.404;24.920;2023-05-10T16:31:16;7.73;;;3.20;;
70122;SDS011;57489;37.404;24.920;2023-05-10T16:36:17;11.00;;;3.83;;
70122;SDS011;57489;37.404;24.920;2023-05-10T16:41:17;11.27;;;3.43;;
70122;SDS011;57489;37.404;24.920;2023-05-10T16:46:17;9.60;;;3.50;;
70122;SDS011;57489;37.404;24.920;2023-05-10T16:51:18;12.93;;;3.57;;
70122;SDS011;57489;37.404;24.920;2023-05-10T16:56:18;21.60;;;3.77;;
70122;SDS011;57489;37.404;24.920;2023-05-10T17:01:19;10.70;;;4.73;;
70122;SDS011;57489;37.404;24.920;2023-05-10T17:06:19;8.03;;;3.00;;
70122;SDS011;57489;37.404;24.920;2023-05-10T17:11:20;10.18;;;3.13;;
70122;SDS011;57489;37.404;24.920;2023-05-10T17:16:20;9.93;;;3.70;;
70122;SDS011;57489;37.404;24.920;2023-05-10T17:21:21;9.50;;;3.60;;
70122;SDS011;57489;37.404;24.920;2023-05-10T17:26:21;10.63;;;2.90;;
70122;SDS011;57489;37.404;24.920;2023-05-10T17:31:22;9.50;;;3.20;;
70122;SDS011;57489;37.404;24.920;2023-05-10T17:36:22;11.60;;;3.17;;
70122;SDS011;57489;37.404;24.920;2023-05-10T17:41:23;11.20;;;3.00;;
70122;SDS011;57489;37.404;24.920;2023-05-10T17:46:23;14.38;;;3.05;;
70122;SDS011;57489;37.404;24.920;2023-05-10T17:51:24;12.50;;;3.00;;
70122;SDS011;57489;37.404;24.920;2023-05-10T17:56:24;12.70;;;3.33;;
70122;SDS011;57489;37.404;24.920;2023-05-10T18:01:25;7.23;;;2.73;;
70122;SDS011;57489;37.404;24.920;2023-05-10T18:06:25;8.77;;;3.00;;
70122;SDS011;57489;37.404;24.920;2023-05-10T18:11:26;9.53;;;2.80;;
70122;SDS011;57489;37.404;24.920;2023-05-10T18:16:26;14.37;;;3.50;;
70122;SDS011;57489;37.404;24.920;2023-05-10T18:21:26;7.20;;;2.67;;
70122;SDS011;57489;37.404;24.920;2023-05-10T18:26:27;8.27;;;2.60;;
70122;SDS011;57489;37.404;24.920;2023-05-10T18:31:27;9.43;;;2.50;;
70122;SDS011;57489;37.404;24.920;2023-05-10T18:36:28;9.03;;;3.30;;
70122;SDS011;57489;37.404;24.920;2023-05-10T18:41:29;9.40;;;3.20;;
70122;SDS011;57489;37.404;24.920;2023-05-10T18:46:29;10.43;;;3.37;;
70122;SDS011;57489;37.404;24.920;2023-05-10T18:51:29;11.50;;;3.07;;
70122;SDS011;57489;37.404;24.920;2023-05-10T18:56:30;8.83;;;2.90;;
70122;SDS011;57489;37.404;24.920;2023-05-10T19:01:30;11.73;;;3.23;;
70122;SDS011;57489;37.404;24.920;2023-05-10T19:06:31;9.37;;;2.13;;
70122;SDS011;57489;37.404;24.920;2023-05-10T19:11:31;5.77;;;2.57;;
70122;SDS011;57489;37.404;24.920;2023-05-10T19:16:32;10.20;;;2.60;;
70122;SDS011;57489;37.404;24.920;2023-05-10T19:21:32;8.43;;;2.93;;
70122;SDS011;57489;37.404;24.920;2023-05-10T19:26:33;7.57;;;2.60;;
70122;SDS011;57489;37.404;24.920;2023-05-10T19:31:33;6.70;;;2.73;;
70122;SDS011;57489;37.404;24.920;2023-05-10T19:36:34;6.90;;;2.30;;
70122;SDS011;57489;37.404;24.920;2023-05-10T19:41:34;5.82;;;2.40;;
70122;SDS011;57489;37.404;24.920;2023-05-10T19:46:35;8.23;;;2.40;;
70122;SDS011;57489;37.404;24.920;2023-05-10T19:51:35;5.77;;;2.47;;
70122;SDS011;57489;37.404;24.920;2023-05-10T19:56:36;8.60;;;2.90;;
70122;SDS011;57489;37.404;24.920;2023-05-10T20:01:36;6.80;;;2.93;;
70122;SDS011;57489;37.404;24.920;2023-05-10T20:06:37;7.13;;;2.87;;
70122;SDS011;57489;37.404;24.920;2023-05-10T20:11:37;4.57;;;2.25;;
70122;SDS011;57489;37.404;24.920;2023-05-10T20:16:38;4.53;;;2.33;;
70122;SDS011;57489;37.404;24.920;2023-05-10T20:21:38;8.20;;;2.47;;
70122;SDS011;57489;37.404;24.920;2023-05-10T20:26:39;5.63;;;2.07;;
70122;SDS011;57489;37.404;24.920;2023-05-10T20:31:40;6.40;;;2.50;;
70122;SDS011;57489;37.404;24.920;2023-05-10T20:36:40;7.63;;;2.90;;
70122;SDS011;57489;37.404;24.920;2023-05-10T20:41:41;6.87;;;2.47;;
70122;SDS011;57489;37.404;24.920;2023-05-10T20:46:41;4.90;;;2.23;;
70122;SDS011;57489;37.404;24.920;2023-05-10T20:51:42;6.63;;;2.75;;
70122;SDS011;57489;37.404;24.920;2023-05-10T20:56:43;5.63;;;2.03;;
70122;SDS011;57489;37.404;24.920;2023-05-10T21:01:43;4.90;;;2.20;;
70122;SDS011;57489;37.404;24.920;2023-05-10T21:06:44;6.53;;;2.90;;
70122;SDS011;57489;37.404;24.920;2023-05-10T21:11:44;4.63;;;2.00;;
70122;SDS011;57489;37.404;24.920;2023-05-10T21:16:45;5.70;;;2.27;;
70122;SDS011;57489;37.404;24.920;2023-05-10T21:21:46;6.97;;;2.57;;
70122;SDS011;57489;37.404;24.920;2023-05-10T21:26:46;5.70;;;2.33;;
70122;SDS011;57489;37.404;24.920;2023-05-10T21:31:47;5.67;;;2.53;;
70122;SDS011;57489;37.404;24.920;2023-05-10T21:36:47;5.97;;;2.30;;
70122;SDS011;57489;37.404;24.920;2023-05-10T21:41:48;5.00;;;2.20;;
70122;SDS011;57489;37.404;24.920;2023-05-10T21:46:48;6.97;;;2.20;;
70122;SDS011;57489;37.404;24.920;2023-05-10T21:51:49;5.03;;;2.03;;
70122;SDS011;57489;37.404;24.920;2023-05-10T21:56:49;9.20;;;2.70;;
70122;SDS011;57489;37.404;24.920;2023-05-10T22:01:50;6.13;;;2.33;;
70122;SDS011;57489;37.404;24.920;2023-05-10T22:06:56;6.28;;;2.22;;
70122;SDS011;57489;37.404;24.920;2023-05-10T22:11:57;5.25;;;2.35;;
70122;SDS011;57489;37.404;24.920;2023-05-10T22:16:59;7.13;;;2.93;;
70122;SDS011;57489;37.404;24.920;2023-05-10T22:22:00;6.55;;;1.92;;
70122;SDS011;57489;37.404;24.920;2023-05-10T22:27:04;6.55;;;2.30;;
70122;SDS011;57489;37.404;24.920;2023-05-10T22:32:05;6.07;;;2.43;;
70122;SDS011;57489;37.404;24.920;2023-05-10T22:37:06;7.18;;;1.90;;
70122;SDS011;57489;37.404;24.920;2023-05-10T22:42:12;5.00;;;2.10;;
70122;SDS011;57489;37.404;24.920;2023-05-10T22:47:14;4.75;;;2.13;;
70122;SDS011;57489;37.404;24.920;2023-05-10T22:52:15;6.83;;;2.00;;
70122;SDS011;57489;37.404;24.920;2023-05-10T22:57:15;7.40;;;2.03;;
70122;SDS011;57489;37.404;24.920;2023-05-10T23:02:16;4.88;;;1.92;;
70122;SDS011;57489;37.404;24.920;2023-05-10T23:07:16;6.40;;;1.90;;
70122;SDS011;57489;37.404;24.920;2023-05-10T23:12:17;5.07;;;1.90;;
70122;SDS011;57489;37.404;24.920;2023-05-10T23:17:17;5.60;;;1.60;;
70122;SDS011;57489;37.404;24.920;2023-05-10T23:22:18;6.82;;;2.05;;
70122;SDS011;57489;37.404;24.920;2023-05-10T23:27:18;6.27;;;2.60;;
70122;SDS011;57489;37.404;24.920;2023-05-10T23:32:19;3.83;;;1.70;;
70122;SDS011;57489;37.404;24.920;2023-05-10T23:37:19;6.03;;;2.43;;
70122;SDS011;57489;37.404;24.920;2023-05-10T23:42:20;5.30;;;2.13;;
70122;SDS011;57489;37.404;24.920;2023-05-10T23:47:20;4.43;;;1.70;;
70122;SDS011;57489;37.404;24.920;2023-05-10T23:52:21;5.63;;;2.40;;
70122;SDS011;57489;37.404;24.920;2023-05-10T23:57:22;5.00;;;2.03;;
